Skip Navigation Links
NOAA logo - Click to go to the NOAA homepage
NOAA's National Weather Service
Alaska Aviation Weather Unit
  NWS logo - Click to go to the NWS homepage
Left Navbar Graphic     19 AKDT = 03 GMT

   
NOAA is celebrating 200 years of science, service, and stewardship. Visit the NOAA 200th celebration Web site to learn more.
USA.gov is the U.S. Government's official Web portal to all Federal, state and local government Web resources and services.
Facebook
NWS on Facebook

Important Change Regarding the AAWU Web Presence

 

Over the last several months, the AAWU has been working to navigate its webpages to a nationally supported server. Security, as well as other needs, have necessitated the change.  In the process, we have made an effort to enhance the functionality of our website, as well as some of our products. As of June 20, 2017, aawu.arh.noaa.gov will be discontinued. The new AAWU web address is weather.gov/aawu. It is now live and will run in-parallel with the old site until it is discontinued. Please send any feedback or questions regarding the new webpages to nws.ar.aawu.webauthors@noaa.gov.  Thank you for your patience during this time of transition.
AAWU Home :: Display TAF Add Bookmark
SPECI PAOU 242113Z AUTO 22024G34KT 10SM SCT029 BKN035 BKN044 07/02 A3004
     RMK AO2 PK WND 21035/2101 RAB2059E10 P0001=

SPECI PAOU 242128Z AUTO 23020G25KT 10SM BKN027 BKN035 BKN043 07/02 A3005
     RMK AO2 PK WND 21035/2101 RAB2059E10 P0001=

SPECI PAOU 242140Z AUTO 22020G29KT 10SM SCT027 BKN035 BKN043 08/02
 A3004 RMK AO2 PK WND 21035/2101 RAB2059E10 P0001=

METAR PAOU 242156Z AUTO 22024G31KT 10SM SCT031 BKN040 BKN050 08/02
 A3004 RMK AO2 PK WND 21035/2101 RAB2059E10 SLP173 P0001
 T00830022=

PAOU 242256Z AUTO 24018G26KT 10SM BKN034 07/02 A3007 RMK AO2 PK
     WND 22031/2202 SLP181 T00720022=

METAR PAOU 250056Z AUTO 25019G26KT 9SM CLR 08/02 A3007 RMK AO2 PK WND
     25026/0048 SLP183 T00780022=

SPECI PAOU 250149Z AUTO 20012KT 10SM SCT018 BKN025 BKN032 07/03 A3009
     RMK AO2 WSHFT 0135=

METAR PAOU 250156Z AUTO 21010KT 10SM -RA BKN018 BKN024 OVC036 07/03
     A3008 RMK AO2 WSHFT 0135 RAB53 SLP187 P0000 T00670028=

SPECI PAOU 250231Z AUTO 24014G23KT 10SM FEW022 BKN044 OVC120 07/03 A3008
     RMK AO2 RAE12 P0000=

METAR PAOU 250256Z AUTO 24014KT 10SM -RA FEW029 BKN050 OVC065 06/03
 A3009 RMK AO2 RAE12B47 SLP188 P0000 60000 T00610028 53005=


NOAA's National Weather Service
Alaska Aviation Weather Unit
6930 Sand Lake Road
Anchorage, AK 99502-1845
Disclaimer
Credits
Glossary
Privacy Policy
About Us
Career Opportunities
Contact AAWU Internet Services Site last modified: April, 17th 2012